sensor_id;sensor_type;location;lat;lon;timestamp;P1;durP1;ratioP1;P2;durP2;ratioP2
6505;SDS011;3286;49.858;8.768;2023-03-25T00:01:34;3.97;;;1.07;;
6505;SDS011;3286;49.858;8.768;2023-03-25T00:04:01;1.47;;;0.97;;
6505;SDS011;3286;49.858;8.768;2023-03-25T00:06:29;1.30;;;0.77;;
6505;SDS011;3286;49.858;8.768;2023-03-25T00:08:58;2.43;;;1.30;;
6505;SDS011;3286;49.858;8.768;2023-03-25T00:11:27;2.53;;;0.90;;
6505;SDS011;3286;49.858;8.768;2023-03-25T00:13:54;1.13;;;0.73;;
6505;SDS011;3286;49.858;8.768;2023-03-25T00:16:22;2.27;;;0.60;;
6505;SDS011;3286;49.858;8.768;2023-03-25T00:18:48;1.20;;;0.70;;
6505;SDS011;3286;49.858;8.768;2023-03-25T00:21:15;3.03;;;0.90;;
6505;SDS011;3286;49.858;8.768;2023-03-25T00:23:43;3.13;;;0.70;;
6505;SDS011;3286;49.858;8.768;2023-03-25T00:26:10;4.07;;;0.73;;
6505;SDS011;3286;49.858;8.768;2023-03-25T00:28:38;0.50;;;0.40;;
6505;SDS011;3286;49.858;8.768;2023-03-25T00:31:06;0.53;;;0.40;;
6505;SDS011;3286;49.858;8.768;2023-03-25T00:33:36;1.03;;;0.50;;
6505;SDS011;3286;49.858;8.768;2023-03-25T00:36:05;0.50;;;0.40;;
6505;SDS011;3286;49.858;8.768;2023-03-25T00:38:33;2.37;;;0.50;;
6505;SDS011;3286;49.858;8.768;2023-03-25T00:41:11;0.47;;;0.40;;
6505;SDS011;3286;49.858;8.768;2023-03-25T00:43:43;2.30;;;0.60;;
6505;SDS011;3286;49.858;8.768;2023-03-25T00:46:11;1.03;;;0.60;;
6505;SDS011;3286;49.858;8.768;2023-03-25T00:48:38;0.73;;;0.40;;
6505;SDS011;3286;49.858;8.768;2023-03-25T00:51:05;0.73;;;0.60;;
6505;SDS011;3286;49.858;8.768;2023-03-25T00:53:34;1.07;;;0.60;;
6505;SDS011;3286;49.858;8.768;2023-03-25T00:56:02;0.30;;;0.30;;
6505;SDS011;3286;49.858;8.768;2023-03-25T00:58:30;1.30;;;0.50;;
6505;SDS011;3286;49.858;8.768;2023-03-25T01:00:58;1.07;;;0.47;;
6505;SDS011;3286;49.858;8.768;2023-03-25T01:03:25;0.53;;;0.37;;
6505;SDS011;3286;49.858;8.768;2023-03-25T01:05:54;0.30;;;0.30;;
6505;SDS011;3286;49.858;8.768;2023-03-25T01:08:22;1.33;;;0.60;;
6505;SDS011;3286;49.858;8.768;2023-03-25T01:10:50;2.60;;;0.53;;
6505;SDS011;3286;49.858;8.768;2023-03-25T01:13:18;1.90;;;0.60;;
6505;SDS011;3286;49.858;8.768;2023-03-25T01:15:46;0.87;;;0.63;;
6505;SDS011;3286;49.858;8.768;2023-03-25T01:18:14;1.80;;;0.77;;
6505;SDS011;3286;49.858;8.768;2023-03-25T01:20:41;1.53;;;0.80;;
6505;SDS011;3286;49.858;8.768;2023-03-25T01:23:08;2.33;;;1.10;;
6505;SDS011;3286;49.858;8.768;2023-03-25T01:25:35;3.47;;;0.93;;
6505;SDS011;3286;49.858;8.768;2023-03-25T01:28:03;1.40;;;0.97;;
6505;SDS011;3286;49.858;8.768;2023-03-25T01:30:30;2.90;;;1.07;;
6505;SDS011;3286;49.858;8.768;2023-03-25T01:32:57;2.40;;;0.83;;
6505;SDS011;3286;49.858;8.768;2023-03-25T01:35:25;3.27;;;1.23;;
6505;SDS011;3286;49.858;8.768;2023-03-25T01:37:52;2.87;;;1.07;;
6505;SDS011;3286;49.858;8.768;2023-03-25T01:40:20;3.13;;;1.00;;
6505;SDS011;3286;49.858;8.768;2023-03-25T01:42:48;6.33;;;1.20;;
6505;SDS011;3286;49.858;8.768;2023-03-25T01:45:18;2.47;;;1.00;;
6505;SDS011;3286;49.858;8.768;2023-03-25T01:47:47;3.70;;;0.90;;
6505;SDS011;3286;49.858;8.768;2023-03-25T01:50:16;3.37;;;0.93;;
6505;SDS011;3286;49.858;8.768;2023-03-25T01:52:48;1.27;;;0.73;;
6505;SDS011;3286;49.858;8.768;2023-03-25T01:55:17;4.60;;;1.43;;
6505;SDS011;3286;49.858;8.768;2023-03-25T01:57:45;1.27;;;0.77;;
6505;SDS011;3286;49.858;8.768;2023-03-25T02:00:13;1.93;;;1.20;;
6505;SDS011;3286;49.858;8.768;2023-03-25T02:02:42;3.17;;;1.30;;
6505;SDS011;3286;49.858;8.768;2023-03-25T02:05:12;4.70;;;0.87;;
6505;SDS011;3286;49.858;8.768;2023-03-25T02:07:43;2.27;;;0.90;;
6505;SDS011;3286;49.858;8.768;2023-03-25T02:10:14;3.67;;;1.17;;
6505;SDS011;3286;49.858;8.768;2023-03-25T02:12:41;3.63;;;1.30;;
6505;SDS011;3286;49.858;8.768;2023-03-25T02:15:09;2.33;;;1.10;;
6505;SDS011;3286;49.858;8.768;2023-03-25T02:17:41;2.90;;;1.07;;
6505;SDS011;3286;49.858;8.768;2023-03-25T02:20:23;2.17;;;1.00;;
6505;SDS011;3286;49.858;8.768;2023-03-25T02:26:20;3.73;;;1.07;;
6505;SDS011;3286;49.858;8.768;2023-03-25T02:29:01;1.47;;;0.80;;
6505;SDS011;3286;49.858;8.768;2023-03-25T02:31:44;1.87;;;0.80;;
6505;SDS011;3286;49.858;8.768;2023-03-25T02:37:29;2.13;;;1.20;;
6505;SDS011;3286;49.858;8.768;2023-03-25T02:40:17;1.80;;;0.90;;
6505;SDS011;3286;49.858;8.768;2023-03-25T02:42:46;1.17;;;0.67;;
6505;SDS011;3286;49.858;8.768;2023-03-25T02:45:17;1.43;;;0.50;;
6505;SDS011;3286;49.858;8.768;2023-03-25T02:47:51;1.20;;;0.73;;
6505;SDS011;3286;49.858;8.768;2023-03-25T02:50:24;3.00;;;0.70;;
6505;SDS011;3286;49.858;8.768;2023-03-25T02:52:57;1.23;;;0.50;;
6505;SDS011;3286;49.858;8.768;2023-03-25T02:55:26;1.53;;;0.80;;
6505;SDS011;3286;49.858;8.768;2023-03-25T02:57:56;1.53;;;0.50;;
6505;SDS011;3286;49.858;8.768;2023-03-25T03:00:25;0.93;;;0.70;;
6505;SDS011;3286;49.858;8.768;2023-03-25T03:02:54;0.80;;;0.60;;
6505;SDS011;3286;49.858;8.768;2023-03-25T03:05:25;2.00;;;0.60;;
6505;SDS011;3286;49.858;8.768;2023-03-25T03:07:57;0.37;;;0.37;;
6505;SDS011;3286;49.858;8.768;2023-03-25T03:10:35;1.63;;;0.77;;
6505;SDS011;3286;49.858;8.768;2023-03-25T03:13:12;1.43;;;0.43;;
6505;SDS011;3286;49.858;8.768;2023-03-25T03:15:50;0.97;;;0.60;;
6505;SDS011;3286;49.858;8.768;2023-03-25T03:18:26;1.60;;;0.43;;
6505;SDS011;3286;49.858;8.768;2023-03-25T03:21:04;1.70;;;0.60;;
6505;SDS011;3286;49.858;8.768;2023-03-25T03:23:40;1.37;;;0.67;;
6505;SDS011;3286;49.858;8.768;2023-03-25T03:26:16;0.60;;;0.60;;
6505;SDS011;3286;49.858;8.768;2023-03-25T03:28:49;0.43;;;0.43;;
6505;SDS011;3286;49.858;8.768;2023-03-25T03:31:24;0.73;;;0.70;;
6505;SDS011;3286;49.858;8.768;2023-03-25T03:33:55;0.90;;;0.53;;
6505;SDS011;3286;49.858;8.768;2023-03-25T03:36:27;1.60;;;0.70;;
6505;SDS011;3286;49.858;8.768;2023-03-25T03:38:59;0.70;;;0.57;;
6505;SDS011;3286;49.858;8.768;2023-03-25T03:41:29;1.33;;;0.50;;
6505;SDS011;3286;49.858;8.768;2023-03-25T03:44:00;0.90;;;0.70;;
6505;SDS011;3286;49.858;8.768;2023-03-25T03:46:30;0.53;;;0.50;;
6505;SDS011;3286;49.858;8.768;2023-03-25T03:49:01;0.80;;;0.80;;
6505;SDS011;3286;49.858;8.768;2023-03-25T03:51:34;1.90;;;1.03;;
6505;SDS011;3286;49.858;8.768;2023-03-25T03:54:05;1.77;;;0.80;;
6505;SDS011;3286;49.858;8.768;2023-03-25T03:56:38;1.80;;;0.90;;
6505;SDS011;3286;49.858;8.768;2023-03-25T03:59:11;0.80;;;0.60;;
6505;SDS011;3286;49.858;8.768;2023-03-25T04:01:43;2.03;;;0.97;;
6505;SDS011;3286;49.858;8.768;2023-03-25T04:04:12;4.33;;;1.00;;
6505;SDS011;3286;49.858;8.768;2023-03-25T04:06:42;1.70;;;0.80;;
6505;SDS011;3286;49.858;8.768;2023-03-25T04:09:15;4.37;;;1.07;;
6505;SDS011;3286;49.858;8.768;2023-03-25T04:11:52;2.40;;;0.77;;
6505;SDS011;3286;49.858;8.768;2023-03-25T04:14:21;2.93;;;0.90;;
6505;SDS011;3286;49.858;8.768;2023-03-25T04:16:48;1.57;;;0.80;;
6505;SDS011;3286;49.858;8.768;2023-03-25T04:19:17;5.73;;;1.07;;
6505;SDS011;3286;49.858;8.768;2023-03-25T04:21:44;2.23;;;1.10;;
6505;SDS011;3286;49.858;8.768;2023-03-25T04:24:11;1.70;;;1.00;;
6505;SDS011;3286;49.858;8.768;2023-03-25T04:26:40;1.50;;;0.80;;
6505;SDS011;3286;49.858;8.768;2023-03-25T04:29:07;2.33;;;0.90;;
6505;SDS011;3286;49.858;8.768;2023-03-25T04:31:34;4.23;;;0.83;;
6505;SDS011;3286;49.858;8.768;2023-03-25T04:34:02;2.30;;;0.90;;
6505;SDS011;3286;49.858;8.768;2023-03-25T04:36:29;4.10;;;1.17;;
6505;SDS011;3286;49.858;8.768;2023-03-25T04:38:57;3.63;;;1.10;;
6505;SDS011;3286;49.858;8.768;2023-03-25T04:41:26;2.73;;;1.00;;
6505;SDS011;3286;49.858;8.768;2023-03-25T04:43:53;2.17;;;1.00;;
6505;SDS011;3286;49.858;8.768;2023-03-25T04:46:20;1.53;;;1.03;;
6505;SDS011;3286;49.858;8.768;2023-03-25T04:48:46;1.37;;;0.80;;
6505;SDS011;3286;49.858;8.768;2023-03-25T04:51:13;4.33;;;0.80;;
6505;SDS011;3286;49.858;8.768;2023-03-25T04:53:40;4.37;;;1.47;;
6505;SDS011;3286;49.858;8.768;2023-03-25T04:56:09;3.77;;;1.03;;
6505;SDS011;3286;49.858;8.768;2023-03-25T04:58:41;1.40;;;0.90;;
6505;SDS011;3286;49.858;8.768;2023-03-25T05:01:09;1.27;;;0.90;;
6505;SDS011;3286;49.858;8.768;2023-03-25T05:03:45;2.93;;;1.00;;
6505;SDS011;3286;49.858;8.768;2023-03-25T05:06:14;3.70;;;1.13;;
6505;SDS011;3286;49.858;8.768;2023-03-25T05:08:41;1.33;;;0.87;;
6505;SDS011;3286;49.858;8.768;2023-03-25T05:11:08;1.57;;;0.70;;
6505;SDS011;3286;49.858;8.768;2023-03-25T05:13:34;3.47;;;1.17;;
6505;SDS011;3286;49.858;8.768;2023-03-25T05:16:02;1.73;;;0.90;;
6505;SDS011;3286;49.858;8.768;2023-03-25T05:18:29;3.90;;;1.03;;
6505;SDS011;3286;49.858;8.768;2023-03-25T05:20:56;2.50;;;0.90;;
6505;SDS011;3286;49.858;8.768;2023-03-25T05:23:24;1.03;;;0.80;;
6505;SDS011;3286;49.858;8.768;2023-03-25T05:25:51;1.83;;;0.90;;
6505;SDS011;3286;49.858;8.768;2023-03-25T05:28:18;2.70;;;1.00;;
6505;SDS011;3286;49.858;8.768;2023-03-25T05:30:45;3.20;;;1.00;;
6505;SDS011;3286;49.858;8.768;2023-03-25T05:33:14;1.70;;;0.90;;
6505;SDS011;3286;49.858;8.768;2023-03-25T05:35:43;4.40;;;1.03;;
6505;SDS011;3286;49.858;8.768;2023-03-25T05:38:11;4.63;;;1.13;;
6505;SDS011;3286;49.858;8.768;2023-03-25T05:40:42;3.47;;;1.07;;
6505;SDS011;3286;49.858;8.768;2023-03-25T05:43:09;3.63;;;1.20;;
6505;SDS011;3286;49.858;8.768;2023-03-25T05:45:36;3.67;;;1.03;;
6505;SDS011;3286;49.858;8.768;2023-03-25T05:48:03;1.40;;;0.90;;
6505;SDS011;3286;49.858;8.768;2023-03-25T05:50:31;2.63;;;0.80;;
6505;SDS011;3286;49.858;8.768;2023-03-25T05:52:58;2.33;;;0.97;;
6505;SDS011;3286;49.858;8.768;2023-03-25T05:55:25;2.33;;;0.90;;
6505;SDS011;3286;49.858;8.768;2023-03-25T05:57:51;1.40;;;0.67;;
6505;SDS011;3286;49.858;8.768;2023-03-25T06:00:18;2.47;;;0.87;;
6505;SDS011;3286;49.858;8.768;2023-03-25T06:02:46;2.67;;;1.20;;
6505;SDS011;3286;49.858;8.768;2023-03-25T06:05:14;1.00;;;0.90;;
6505;SDS011;3286;49.858;8.768;2023-03-25T06:07:43;3.97;;;1.10;;
6505;SDS011;3286;49.858;8.768;2023-03-25T06:10:11;2.63;;;1.03;;
6505;SDS011;3286;49.858;8.768;2023-03-25T06:12:41;1.57;;;0.83;;
6505;SDS011;3286;49.858;8.768;2023-03-25T06:15:10;4.17;;;1.03;;
6505;SDS011;3286;49.858;8.768;2023-03-25T06:17:38;5.27;;;1.10;;
6505;SDS011;3286;49.858;8.768;2023-03-25T06:20:05;9.17;;;1.20;;
6505;SDS011;3286;49.858;8.768;2023-03-25T06:22:36;3.23;;;1.23;;
6505;SDS011;3286;49.858;8.768;2023-03-25T06:25:05;1.70;;;1.03;;
6505;SDS011;3286;49.858;8.768;2023-03-25T06:27:32;4.77;;;1.10;;
6505;SDS011;3286;49.858;8.768;2023-03-25T06:30:04;4.10;;;1.50;;
6505;SDS011;3286;49.858;8.768;2023-03-25T06:32:32;3.20;;;1.40;;
6505;SDS011;3286;49.858;8.768;2023-03-25T06:34:59;4.93;;;1.50;;
6505;SDS011;3286;49.858;8.768;2023-03-25T06:37:26;3.70;;;1.33;;
6505;SDS011;3286;49.858;8.768;2023-03-25T06:39:53;2.10;;;1.00;;
6505;SDS011;3286;49.858;8.768;2023-03-25T06:42:22;4.30;;;1.27;;
6505;SDS011;3286;49.858;8.768;2023-03-25T06:44:48;4.87;;;1.20;;
6505;SDS011;3286;49.858;8.768;2023-03-25T06:47:15;2.90;;;1.00;;
6505;SDS011;3286;49.858;8.768;2023-03-25T06:49:42;2.77;;;1.27;;
6505;SDS011;3286;49.858;8.768;2023-03-25T06:52:08;3.63;;;1.33;;
6505;SDS011;3286;49.858;8.768;2023-03-25T06:54:36;3.17;;;1.10;;
6505;SDS011;3286;49.858;8.768;2023-03-25T06:57:02;4.83;;;1.50;;
6505;SDS011;3286;49.858;8.768;2023-03-25T06:59:30;6.60;;;1.30;;
6505;SDS011;3286;49.858;8.768;2023-03-25T07:01:57;4.77;;;1.60;;
6505;SDS011;3286;49.858;8.768;2023-03-25T07:04:24;4.13;;;0.80;;
6505;SDS011;3286;49.858;8.768;2023-03-25T07:06:51;4.83;;;0.87;;
6505;SDS011;3286;49.858;8.768;2023-03-25T07:09:17;8.17;;;1.33;;
6505;SDS011;3286;49.858;8.768;2023-03-25T07:11:44;4.03;;;1.17;;
6505;SDS011;3286;49.858;8.768;2023-03-25T07:14:10;3.00;;;1.30;;
6505;SDS011;3286;49.858;8.768;2023-03-25T07:16:39;5.37;;;1.30;;
6505;SDS011;3286;49.858;8.768;2023-03-25T07:19:05;6.43;;;1.20;;
6505;SDS011;3286;49.858;8.768;2023-03-25T07:21:32;4.30;;;1.13;;
6505;SDS011;3286;49.858;8.768;2023-03-25T07:23:58;7.43;;;1.40;;
6505;SDS011;3286;49.858;8.768;2023-03-25T07:26:25;5.50;;;1.67;;
6505;SDS011;3286;49.858;8.768;2023-03-25T07:28:51;5.17;;;1.57;;
6505;SDS011;3286;49.858;8.768;2023-03-25T07:31:18;4.17;;;1.50;;
6505;SDS011;3286;49.858;8.768;2023-03-25T07:33:46;4.20;;;1.50;;
6505;SDS011;3286;49.858;8.768;2023-03-25T07:36:13;3.57;;;1.37;;
6505;SDS011;3286;49.858;8.768;2023-03-25T07:38:39;6.87;;;1.60;;
6505;SDS011;3286;49.858;8.768;2023-03-25T07:41:06;8.57;;;1.67;;
6505;SDS011;3286;49.858;8.768;2023-03-25T07:43:34;4.57;;;1.70;;
6505;SDS011;3286;49.858;8.768;2023-03-25T07:46:01;6.57;;;1.70;;
6505;SDS011;3286;49.858;8.768;2023-03-25T07:48:28;5.90;;;1.47;;
6505;SDS011;3286;49.858;8.768;2023-03-25T07:50:56;8.03;;;1.63;;
6505;SDS011;3286;49.858;8.768;2023-03-25T07:53:23;6.57;;;1.60;;
6505;SDS011;3286;49.858;8.768;2023-03-25T07:55:50;8.43;;;2.40;;
6505;SDS011;3286;49.858;8.768;2023-03-25T07:58:16;8.83;;;2.10;;
6505;SDS011;3286;49.858;8.768;2023-03-25T08:00:43;7.63;;;1.80;;
6505;SDS011;3286;49.858;8.768;2023-03-25T08:03:11;14.87;;;3.10;;
6505;SDS011;3286;49.858;8.768;2023-03-25T08:05:41;7.87;;;1.80;;
6505;SDS011;3286;49.858;8.768;2023-03-25T08:08:11;7.93;;;1.90;;
6505;SDS011;3286;49.858;8.768;2023-03-25T08:10:39;8.43;;;2.00;;
6505;SDS011;3286;49.858;8.768;2023-03-25T08:13:07;6.60;;;2.57;;
6505;SDS011;3286;49.858;8.768;2023-03-25T08:15:34;7.10;;;1.47;;
6505;SDS011;3286;49.858;8.768;2023-03-25T08:18:01;8.53;;;1.80;;
6505;SDS011;3286;49.858;8.768;2023-03-25T08:20:29;4.73;;;1.53;;
6505;SDS011;3286;49.858;8.768;2023-03-25T08:22:56;6.77;;;1.60;;
6505;SDS011;3286;49.858;8.768;2023-03-25T08:25:24;9.63;;;1.90;;
6505;SDS011;3286;49.858;8.768;2023-03-25T08:27:52;6.23;;;1.43;;
6505;SDS011;3286;49.858;8.768;2023-03-25T08:30:18;9.23;;;1.63;;
6505;SDS011;3286;49.858;8.768;2023-03-25T08:32:45;4.03;;;1.50;;
6505;SDS011;3286;49.858;8.768;2023-03-25T08:35:18;5.30;;;1.30;;
6505;SDS011;3286;49.858;8.768;2023-03-25T08:37:45;8.90;;;1.80;;
6505;SDS011;3286;49.858;8.768;2023-03-25T08:40:12;8.93;;;2.10;;
6505;SDS011;3286;49.858;8.768;2023-03-25T08:42:42;5.53;;;1.40;;
6505;SDS011;3286;49.858;8.768;2023-03-25T08:45:09;7.63;;;1.57;;
6505;SDS011;3286;49.858;8.768;2023-03-25T08:47:36;7.63;;;1.90;;
6505;SDS011;3286;49.858;8.768;2023-03-25T08:50:03;3.63;;;1.30;;
6505;SDS011;3286;49.858;8.768;2023-03-25T08:52:30;9.57;;;1.67;;
6505;SDS011;3286;49.858;8.768;2023-03-25T08:54:57;6.83;;;1.80;;
6505;SDS011;3286;49.858;8.768;2023-03-25T08:57:24;9.33;;;1.83;;
6505;SDS011;3286;49.858;8.768;2023-03-25T08:59:52;3.13;;;1.40;;
6505;SDS011;3286;49.858;8.768;2023-03-25T09:02:18;4.80;;;1.67;;
6505;SDS011;3286;49.858;8.768;2023-03-25T09:04:46;4.40;;;1.47;;
6505;SDS011;3286;49.858;8.768;2023-03-25T09:07:13;6.87;;;1.73;;
6505;SDS011;3286;49.858;8.768;2023-03-25T09:09:40;6.03;;;1.60;;
6505;SDS011;3286;49.858;8.768;2023-03-25T09:12:06;5.03;;;1.63;;
6505;SDS011;3286;49.858;8.768;2023-03-25T09:14:33;5.77;;;1.43;;
6505;SDS011;3286;49.858;8.768;2023-03-25T09:17:02;10.17;;;1.53;;
6505;SDS011;3286;49.858;8.768;2023-03-25T09:19:30;6.30;;;1.70;;
6505;SDS011;3286;49.858;8.768;2023-03-25T09:21:56;8.03;;;1.80;;
6505;SDS011;3286;49.858;8.768;2023-03-25T09:24:23;4.70;;;1.47;;
6505;SDS011;3286;49.858;8.768;2023-03-25T09:26:50;7.70;;;1.57;;
6505;SDS011;3286;49.858;8.768;2023-03-25T09:29:16;8.20;;;1.70;;
6505;SDS011;3286;49.858;8.768;2023-03-25T09:31:43;5.10;;;1.43;;
6505;SDS011;3286;49.858;8.768;2023-03-25T09:34:11;6.03;;;1.60;;
6505;SDS011;3286;49.858;8.768;2023-03-25T09:36:38;4.80;;;1.23;;
6505;SDS011;3286;49.858;8.768;2023-03-25T09:39:04;4.97;;;1.50;;
6505;SDS011;3286;49.858;8.768;2023-03-25T09:41:40;7.20;;;1.40;;
6505;SDS011;3286;49.858;8.768;2023-03-25T09:44:20;3.27;;;1.30;;
6505;SDS011;3286;49.858;8.768;2023-03-25T09:46:49;6.37;;;1.60;;
6505;SDS011;3286;49.858;8.768;2023-03-25T09:49:18;4.10;;;1.37;;
6505;SDS011;3286;49.858;8.768;2023-03-25T09:51:49;3.87;;;1.23;;
6505;SDS011;3286;49.858;8.768;2023-03-25T09:54:19;6.17;;;1.67;;
6505;SDS011;3286;49.858;8.768;2023-03-25T09:56:50;6.80;;;1.40;;
6505;SDS011;3286;49.858;8.768;2023-03-25T09:59:19;3.37;;;1.23;;
6505;SDS011;3286;49.858;8.768;2023-03-25T10:01:49;5.03;;;1.20;;
6505;SDS011;3286;49.858;8.768;2023-03-25T10:04:38;3.40;;;1.37;;
6505;SDS011;3286;49.858;8.768;2023-03-25T10:07:15;5.17;;;1.30;;
6505;SDS011;3286;49.858;8.768;2023-03-25T10:09:56;5.43;;;1.33;;
6505;SDS011;3286;49.858;8.768;2023-03-25T10:12:31;3.50;;;1.20;;
6505;SDS011;3286;49.858;8.768;2023-03-25T10:15:10;3.90;;;1.07;;
6505;SDS011;3286;49.858;8.768;2023-03-25T10:17:44;2.20;;;0.87;;
6505;SDS011;3286;49.858;8.768;2023-03-25T10:20:24;6.13;;;1.60;;
6505;SDS011;3286;49.858;8.768;2023-03-25T10:23:05;6.10;;;1.37;;
6505;SDS011;3286;49.858;8.768;2023-03-25T10:25:40;4.17;;;1.23;;
6505;SDS011;3286;49.858;8.768;2023-03-25T10:28:11;3.43;;;0.90;;
6505;SDS011;3286;49.858;8.768;2023-03-25T10:30:44;4.63;;;1.60;;
6505;SDS011;3286;49.858;8.768;2023-03-25T10:33:15;2.73;;;1.17;;
6505;SDS011;3286;49.858;8.768;2023-03-25T10:35:53;2.73;;;0.60;;
6505;SDS011;3286;49.858;8.768;2023-03-25T10:38:23;0.90;;;0.60;;
6505;SDS011;3286;49.858;8.768;2023-03-25T10:40:51;2.23;;;0.50;;
6505;SDS011;3286;49.858;8.768;2023-03-25T10:43:28;2.40;;;0.67;;
6505;SDS011;3286;49.858;8.768;2023-03-25T10:45:59;4.60;;;1.20;;
6505;SDS011;3286;49.858;8.768;2023-03-25T10:48:31;3.27;;;0.83;;
6505;SDS011;3286;49.858;8.768;2023-03-25T10:51:02;2.17;;;0.93;;
6505;SDS011;3286;49.858;8.768;2023-03-25T10:53:32;4.07;;;1.27;;
6505;SDS011;3286;49.858;8.768;2023-03-25T10:56:01;3.33;;;0.97;;
6505;SDS011;3286;49.858;8.768;2023-03-25T10:58:30;2.70;;;0.90;;
6505;SDS011;3286;49.858;8.768;2023-03-25T11:00:59;1.53;;;0.80;;
6505;SDS011;3286;49.858;8.768;2023-03-25T11:03:35;2.27;;;1.10;;
6505;SDS011;3286;49.858;8.768;2023-03-25T11:06:08;3.50;;;1.10;;
6505;SDS011;3286;49.858;8.768;2023-03-25T11:11:42;2.23;;;1.33;;
6505;SDS011;3286;49.858;8.768;2023-03-25T11:14:09;2.27;;;1.00;;
6505;SDS011;3286;49.858;8.768;2023-03-25T11:16:39;3.00;;;1.30;;
6505;SDS011;3286;49.858;8.768;2023-03-25T11:19:11;2.27;;;0.90;;
6505;SDS011;3286;49.858;8.768;2023-03-25T11:21:46;3.13;;;0.90;;
6505;SDS011;3286;49.858;8.768;2023-03-25T11:24:14;4.03;;;1.03;;
6505;SDS011;3286;49.858;8.768;2023-03-25T11:26:44;3.60;;;0.90;;
6505;SDS011;3286;49.858;8.768;2023-03-25T11:29:14;3.97;;;0.97;;
6505;SDS011;3286;49.858;8.768;2023-03-25T11:31:44;2.37;;;1.03;;
6505;SDS011;3286;49.858;8.768;2023-03-25T11:34:22;2.70;;;1.07;;
6505;SDS011;3286;49.858;8.768;2023-03-25T11:36:52;4.40;;;1.00;;
6505;SDS011;3286;49.858;8.768;2023-03-25T11:39:28;2.77;;;0.83;;
6505;SDS011;3286;49.858;8.768;2023-03-25T11:41:58;2.97;;;1.00;;
6505;SDS011;3286;49.858;8.768;2023-03-25T11:44:26;3.07;;;1.17;;
6505;SDS011;3286;49.858;8.768;2023-03-25T11:46:55;4.00;;;1.00;;
6505;SDS011;3286;49.858;8.768;2023-03-25T11:49:25;1.77;;;0.93;;
6505;SDS011;3286;49.858;8.768;2023-03-25T11:52:01;0.57;;;0.50;;
6505;SDS011;3286;49.858;8.768;2023-03-25T11:54:31;0.70;;;0.50;;
6505;SDS011;3286;49.858;8.768;2023-03-25T11:57:01;0.43;;;0.30;;
6505;SDS011;3286;49.858;8.768;2023-03-25T11:59:34;1.40;;;0.63;;
6505;SDS011;3286;49.858;8.768;2023-03-25T12:02:08;0.83;;;0.70;;
6505;SDS011;3286;49.858;8.768;2023-03-25T12:04:53;0.83;;;0.50;;
6505;SDS011;3286;49.858;8.768;2023-03-25T12:07:23;1.97;;;0.60;;
6505;SDS011;3286;49.858;8.768;2023-03-25T12:09:52;0.43;;;0.40;;
6505;SDS011;3286;49.858;8.768;2023-03-25T12:12:32;2.40;;;0.80;;
6505;SDS011;3286;49.858;8.768;2023-03-25T12:15:15;1.83;;;0.80;;
6505;SDS011;3286;49.858;8.768;2023-03-25T12:17:55;1.93;;;0.60;;
6505;SDS011;3286;49.858;8.768;2023-03-25T12:20:33;1.60;;;0.60;;
6505;SDS011;3286;49.858;8.768;2023-03-25T12:23:12;8.40;;;1.00;;
6505;SDS011;3286;49.858;8.768;2023-03-25T12:25:52;1.93;;;0.80;;
6505;SDS011;3286;49.858;8.768;2023-03-25T12:28:35;3.30;;;0.90;;
6505;SDS011;3286;49.858;8.768;2023-03-25T12:31:20;4.80;;;0.90;;
6505;SDS011;3286;49.858;8.768;2023-03-25T12:33:57;1.90;;;1.10;;
6505;SDS011;3286;49.858;8.768;2023-03-25T12:36:37;4.10;;;1.17;;
6505;SDS011;3286;49.858;8.768;2023-03-25T12:39:19;1.10;;;0.80;;
6505;SDS011;3286;49.858;8.768;2023-03-25T12:41:59;1.47;;;0.63;;
6505;SDS011;3286;49.858;8.768;2023-03-25T12:44:39;2.90;;;0.70;;
6505;SDS011;3286;49.858;8.768;2023-03-25T12:47:15;1.60;;;0.83;;
6505;SDS011;3286;49.858;8.768;2023-03-25T12:49:53;6.53;;;1.50;;
6505;SDS011;3286;49.858;8.768;2023-03-25T12:52:37;2.20;;;0.87;;
6505;SDS011;3286;49.858;8.768;2023-03-25T12:55:19;2.03;;;0.83;;
6505;SDS011;3286;49.858;8.768;2023-03-25T12:57:58;3.20;;;1.03;;
6505;SDS011;3286;49.858;8.768;2023-03-25T13:00:44;2.90;;;0.80;;
6505;SDS011;3286;49.858;8.768;2023-03-25T13:03:22;2.67;;;0.93;;
6505;SDS011;3286;49.858;8.768;2023-03-25T13:06:07;2.37;;;0.90;;
6505;SDS011;3286;49.858;8.768;2023-03-25T13:08:44;2.43;;;0.90;;
6505;SDS011;3286;49.858;8.768;2023-03-25T13:11:20;3.83;;;0.93;;
6505;SDS011;3286;49.858;8.768;2023-03-25T13:13:50;3.57;;;1.10;;
6505;SDS011;3286;49.858;8.768;2023-03-25T13:16:21;4.10;;;1.00;;
6505;SDS011;3286;49.858;8.768;2023-03-25T13:18:52;3.40;;;1.07;;
6505;SDS011;3286;49.858;8.768;2023-03-25T13:21:26;3.90;;;0.90;;
6505;SDS011;3286;49.858;8.768;2023-03-25T13:23:55;2.80;;;0.50;;
6505;SDS011;3286;49.858;8.768;2023-03-25T13:26:27;2.80;;;1.10;;
6505;SDS011;3286;49.858;8.768;2023-03-25T13:28:56;1.97;;;0.60;;
6505;SDS011;3286;49.858;8.768;2023-03-25T13:31:27;2.80;;;0.80;;
6505;SDS011;3286;49.858;8.768;2023-03-25T13:34:00;3.10;;;1.13;;
6505;SDS011;3286;49.858;8.768;2023-03-25T13:36:35;3.27;;;1.13;;
6505;SDS011;3286;49.858;8.768;2023-03-25T13:39:09;2.50;;;0.73;;
6505;SDS011;3286;49.858;8.768;2023-03-25T13:41:41;3.23;;;0.90;;
6505;SDS011;3286;49.858;8.768;2023-03-25T13:44:13;1.03;;;0.70;;
6505;SDS011;3286;49.858;8.768;2023-03-25T13:46:45;3.30;;;1.23;;
6505;SDS011;3286;49.858;8.768;2023-03-25T13:49:16;2.93;;;0.80;;
6505;SDS011;3286;49.858;8.768;2023-03-25T13:51:48;2.73;;;0.70;;
6505;SDS011;3286;49.858;8.768;2023-03-25T13:54:15;2.37;;;0.87;;
6505;SDS011;3286;49.858;8.768;2023-03-25T13:57:00;2.77;;;1.10;;
6505;SDS011;3286;49.858;8.768;2023-03-25T14:02:43;2.73;;;0.90;;
6505;SDS011;3286;49.858;8.768;2023-03-25T14:05:39;3.83;;;1.10;;
6505;SDS011;3286;49.858;8.768;2023-03-25T14:08:43;1.93;;;0.90;;
6505;SDS011;3286;49.858;8.768;2023-03-25T14:11:29;3.13;;;0.90;;
6505;SDS011;3286;49.858;8.768;2023-03-25T14:14:04;5.23;;;1.63;;
6505;SDS011;3286;49.858;8.768;2023-03-25T14:16:36;2.37;;;0.83;;
6505;SDS011;3286;49.858;8.768;2023-03-25T14:19:08;2.60;;;1.10;;
6505;SDS011;3286;49.858;8.768;2023-03-25T14:21:39;3.37;;;0.80;;
6505;SDS011;3286;49.858;8.768;2023-03-25T14:24:09;2.13;;;1.13;;
6505;SDS011;3286;49.858;8.768;2023-03-25T14:26:42;4.13;;;1.00;;
6505;SDS011;3286;49.858;8.768;2023-03-25T14:29:17;5.97;;;1.00;;
6505;SDS011;3286;49.858;8.768;2023-03-25T14:32:01;2.53;;;1.00;;
6505;SDS011;3286;49.858;8.768;2023-03-25T14:34:31;3.67;;;1.07;;
6505;SDS011;3286;49.858;8.768;2023-03-25T14:39:58;2.83;;;0.83;;
6505;SDS011;3286;49.858;8.768;2023-03-25T14:42:30;3.73;;;0.90;;
6505;SDS011;3286;49.858;8.768;2023-03-25T14:48:17;2.28;;;0.65;;
6505;SDS011;3286;49.858;8.768;2023-03-25T14:50:53;1.90;;;0.70;;
6505;SDS011;3286;49.858;8.768;2023-03-25T14:53:39;4.50;;;0.95;;
6505;SDS011;3286;49.858;8.768;2023-03-25T14:56:07;3.60;;;1.10;;
6505;SDS011;3286;49.858;8.768;2023-03-25T14:58:42;2.85;;;0.90;;
6505;SDS011;3286;49.858;8.768;2023-03-25T15:01:12;4.43;;;0.82;;
6505;SDS011;3286;49.858;8.768;2023-03-25T15:03:42;3.75;;;0.63;;
6505;SDS011;3286;49.858;8.768;2023-03-25T15:06:15;3.28;;;1.05;;
6505;SDS011;3286;49.858;8.768;2023-03-25T15:08:48;3.38;;;1.05;;
6505;SDS011;3286;49.858;8.768;2023-03-25T15:11:24;1.70;;;0.90;;
6505;SDS011;3286;49.858;8.768;2023-03-25T15:13:54;2.63;;;1.05;;
6505;SDS011;3286;49.858;8.768;2023-03-25T15:16:30;3.80;;;0.93;;
6505;SDS011;3286;49.858;8.768;2023-03-25T15:19:00;3.67;;;1.17;;
6505;SDS011;3286;49.858;8.768;2023-03-25T15:21:30;3.65;;;1.67;;
6505;SDS011;3286;49.858;8.768;2023-03-25T15:23:59;4.35;;;1.20;;
6505;SDS011;3286;49.858;8.768;2023-03-25T15:26:30;2.25;;;1.08;;
6505;SDS011;3286;49.858;8.768;2023-03-25T15:29:05;3.33;;;1.03;;
6505;SDS011;3286;49.858;8.768;2023-03-25T15:31:53;4.87;;;1.30;;
6505;SDS011;3286;49.858;8.768;2023-03-25T15:34:42;1.00;;;0.80;;
6505;SDS011;3286;49.858;8.768;2023-03-25T15:40:23;3.30;;;1.07;;
6505;SDS011;3286;49.858;8.768;2023-03-25T15:46:06;5.73;;;1.77;;
6505;SDS011;3286;49.858;8.768;2023-03-25T15:49:04;3.23;;;1.30;;
6505;SDS011;3286;49.858;8.768;2023-03-25T15:51:50;4.77;;;2.60;;
6505;SDS011;3286;49.858;8.768;2023-03-25T15:54:31;4.23;;;0.90;;
6505;SDS011;3286;49.858;8.768;2023-03-25T15:57:04;3.10;;;1.20;;
6505;SDS011;3286;49.858;8.768;2023-03-25T15:59:41;4.70;;;1.20;;
6505;SDS011;3286;49.858;8.768;2023-03-25T16:02:13;1.87;;;1.20;;
6505;SDS011;3286;49.858;8.768;2023-03-25T16:04:49;2.93;;;0.90;;